sensor_id;sensor_type;location;lat;lon;timestamp;P1;durP1;ratioP1;P2;durP2;ratioP2
33022;SDS011;19390;51.460;5.710;2023-03-31T00:01:33;8.43;;;3.05;;
33022;SDS011;19390;51.460;5.710;2023-03-31T00:03:59;8.88;;;2.92;;
33022;SDS011;19390;51.460;5.710;2023-03-31T00:06:30;9.52;;;2.25;;
33022;SDS011;19390;51.460;5.710;2023-03-31T00:09:01;7.55;;;2.70;;
33022;SDS011;19390;51.460;5.710;2023-03-31T00:11:28;13.98;;;2.45;;
33022;SDS011;19390;51.460;5.710;2023-03-31T00:13:54;7.97;;;2.30;;
33022;SDS011;19390;51.460;5.710;2023-03-31T00:16:20;11.07;;;2.60;;
33022;SDS011;19390;51.460;5.710;2023-03-31T00:18:46;11.68;;;2.75;;
33022;SDS011;19390;51.460;5.710;2023-03-31T00:21:15;14.32;;;3.72;;
33022;SDS011;19390;51.460;5.710;2023-03-31T00:23:58;13.02;;;3.55;;
33022;SDS011;19390;51.460;5.710;2023-03-31T00:26:25;6.55;;;2.55;;
33022;SDS011;19390;51.460;5.710;2023-03-31T00:28:52;10.57;;;2.92;;
33022;SDS011;19390;51.460;5.710;2023-03-31T00:31:18;12.73;;;3.35;;
33022;SDS011;19390;51.460;5.710;2023-03-31T00:33:44;11.43;;;3.35;;
33022;SDS011;19390;51.460;5.710;2023-03-31T00:36:10;13.00;;;3.33;;
33022;SDS011;19390;51.460;5.710;2023-03-31T00:38:36;12.35;;;2.92;;
33022;SDS011;19390;51.460;5.710;2023-03-31T00:41:02;11.65;;;2.83;;
33022;SDS011;19390;51.460;5.710;2023-03-31T00:43:29;13.93;;;3.08;;
33022;SDS011;19390;51.460;5.710;2023-03-31T00:46:04;10.38;;;2.83;;
33022;SDS011;19390;51.460;5.710;2023-03-31T00:48:31;9.68;;;2.40;;
33022;SDS011;19390;51.460;5.710;2023-03-31T00:50:59;10.82;;;2.90;;
33022;SDS011;19390;51.460;5.710;2023-03-31T00:53:29;11.88;;;2.60;;
33022;SDS011;19390;51.460;5.710;2023-03-31T00:56:00;8.02;;;2.45;;
33022;SDS011;19390;51.460;5.710;2023-03-31T00:58:30;10.98;;;2.97;;
33022;SDS011;19390;51.460;5.710;2023-03-31T01:00:57;12.10;;;2.72;;
33022;SDS011;19390;51.460;5.710;2023-03-31T01:03:26;11.95;;;2.40;;
33022;SDS011;19390;51.460;5.710;2023-03-31T01:05:58;14.57;;;2.97;;
33022;SDS011;19390;51.460;5.710;2023-03-31T01:08:27;11.60;;;2.30;;
33022;SDS011;19390;51.460;5.710;2023-03-31T01:11:02;10.63;;;2.63;;
33022;SDS011;19390;51.460;5.710;2023-03-31T01:13:31;8.35;;;2.35;;
33022;SDS011;19390;51.460;5.710;2023-03-31T01:15:59;10.88;;;2.40;;
33022;SDS011;19390;51.460;5.710;2023-03-31T01:18:25;9.68;;;3.10;;
33022;SDS011;19390;51.460;5.710;2023-03-31T01:37:53;11.25;;;2.53;;
33022;SDS011;19390;51.460;5.710;2023-03-31T01:40:37;15.43;;;3.85;;
33022;SDS011;19390;51.460;5.710;2023-03-31T01:46:26;14.35;;;3.92;;
33022;SDS011;19390;51.460;5.710;2023-03-31T01:51:54;16.73;;;3.05;;
33022;SDS011;19390;51.460;5.710;2023-03-31T01:54:29;12.10;;;2.95;;
33022;SDS011;19390;51.460;5.710;2023-03-31T01:56:57;19.88;;;3.53;;
33022;SDS011;19390;51.460;5.710;2023-03-31T01:59:44;16.85;;;2.90;;
33022;SDS011;19390;51.460;5.710;2023-03-31T02:02:18;13.98;;;2.95;;
33022;SDS011;19390;51.460;5.710;2023-03-31T02:04:52;24.95;;;3.97;;
33022;SDS011;19390;51.460;5.710;2023-03-31T02:07:33;17.05;;;3.92;;
33022;SDS011;19390;51.460;5.710;2023-03-31T02:10:26;23.20;;;3.80;;
33022;SDS011;19390;51.460;5.710;2023-03-31T02:12:55;17.05;;;3.88;;
33022;SDS011;19390;51.460;5.710;2023-03-31T02:15:26;18.17;;;3.50;;
33022;SDS011;19390;51.460;5.710;2023-03-31T02:17:55;18.00;;;3.55;;
33022;SDS011;19390;51.460;5.710;2023-03-31T02:20:24;21.83;;;3.88;;
33022;SDS011;19390;51.460;5.710;2023-03-31T02:22:52;21.42;;;4.93;;
33022;SDS011;19390;51.460;5.710;2023-03-31T02:26:03;26.85;;;5.00;;
33022;SDS011;19390;51.460;5.710;2023-03-31T02:28:15;21.45;;;5.18;;
33022;SDS011;19390;51.460;5.710;2023-03-31T02:30:54;15.70;;;4.55;;
33022;SDS011;19390;51.460;5.710;2023-03-31T02:33:34;16.50;;;4.22;;
33022;SDS011;19390;51.460;5.710;2023-03-31T02:36:00;23.83;;;5.13;;
33022;SDS011;19390;51.460;5.710;2023-03-31T02:38:26;19.60;;;4.35;;
33022;SDS011;19390;51.460;5.710;2023-03-31T02:40:52;26.27;;;5.10;;
33022;SDS011;19390;51.460;5.710;2023-03-31T02:43:18;22.38;;;5.03;;
33022;SDS011;19390;51.460;5.710;2023-03-31T02:45:48;27.77;;;5.72;;
33022;SDS011;19390;51.460;5.710;2023-03-31T02:48:16;23.92;;;4.88;;
33022;SDS011;19390;51.460;5.710;2023-03-31T03:08:19;19.02;;;4.80;;
33022;SDS011;19390;51.460;5.710;2023-03-31T03:13:50;17.40;;;3.83;;
33022;SDS011;19390;51.460;5.710;2023-03-31T03:16:38;19.08;;;4.40;;
33022;SDS011;19390;51.460;5.710;2023-03-31T03:19:07;18.02;;;3.50;;
33022;SDS011;19390;51.460;5.710;2023-03-31T03:21:33;20.08;;;3.17;;
33022;SDS011;19390;51.460;5.710;2023-03-31T03:23:59;15.05;;;2.88;;
33022;SDS011;19390;51.460;5.710;2023-03-31T03:26:25;17.95;;;3.25;;
33022;SDS011;19390;51.460;5.710;2023-03-31T03:28:54;19.92;;;4.18;;
33022;SDS011;19390;51.460;5.710;2023-03-31T03:31:21;12.80;;;3.20;;
33022;SDS011;19390;51.460;5.710;2023-03-31T03:33:47;15.15;;;2.80;;
33022;SDS011;19390;51.460;5.710;2023-03-31T03:36:14;15.77;;;2.58;;
33022;SDS011;19390;51.460;5.710;2023-03-31T03:38:40;14.88;;;2.20;;
33022;SDS011;19390;51.460;5.710;2023-03-31T03:41:06;15.57;;;2.88;;
33022;SDS011;19390;51.460;5.710;2023-03-31T03:43:32;16.30;;;2.88;;
33022;SDS011;19390;51.460;5.710;2023-03-31T03:45:57;15.35;;;3.13;;
33022;SDS011;19390;51.460;5.710;2023-03-31T03:48:23;10.63;;;2.53;;
33022;SDS011;19390;51.460;5.710;2023-03-31T03:50:49;9.65;;;2.63;;
33022;SDS011;19390;51.460;5.710;2023-03-31T03:53:15;13.43;;;3.78;;
33022;SDS011;19390;51.460;5.710;2023-03-31T03:55:40;16.73;;;2.60;;
33022;SDS011;19390;51.460;5.710;2023-03-31T03:58:06;12.02;;;3.00;;
33022;SDS011;19390;51.460;5.710;2023-03-31T04:00:32;14.75;;;2.92;;
33022;SDS011;19390;51.460;5.710;2023-03-31T04:02:58;12.27;;;2.67;;
33022;SDS011;19390;51.460;5.710;2023-03-31T04:05:23;10.10;;;2.58;;
33022;SDS011;19390;51.460;5.710;2023-03-31T04:07:49;14.23;;;2.28;;
33022;SDS011;19390;51.460;5.710;2023-03-31T04:10:15;11.60;;;1.92;;
33022;SDS011;19390;51.460;5.710;2023-03-31T04:12:40;11.25;;;2.25;;
33022;SDS011;19390;51.460;5.710;2023-03-31T04:15:06;11.18;;;2.47;;
33022;SDS011;19390;51.460;5.710;2023-03-31T04:17:32;15.55;;;3.10;;
33022;SDS011;19390;51.460;5.710;2023-03-31T04:20:01;13.40;;;3.22;;
33022;SDS011;19390;51.460;5.710;2023-03-31T04:22:30;9.82;;;2.60;;
33022;SDS011;19390;51.460;5.710;2023-03-31T04:25:05;8.05;;;2.08;;
33022;SDS011;19390;51.460;5.710;2023-03-31T04:27:43;12.45;;;2.35;;
33022;SDS011;19390;51.460;5.710;2023-03-31T04:30:20;8.80;;;1.90;;
33022;SDS011;19390;51.460;5.710;2023-03-31T04:32:48;9.38;;;2.85;;
33022;SDS011;19390;51.460;5.710;2023-03-31T04:35:22;17.73;;;2.72;;
33022;SDS011;19390;51.460;5.710;2023-03-31T04:37:50;10.40;;;2.42;;
33022;SDS011;19390;51.460;5.710;2023-03-31T04:42:48;11.00;;;1.73;;
33022;SDS011;19390;51.460;5.710;2023-03-31T04:45:15;10.95;;;2.15;;
33022;SDS011;19390;51.460;5.710;2023-03-31T04:47:41;11.00;;;2.22;;
33022;SDS011;19390;51.460;5.710;2023-03-31T04:50:07;11.70;;;2.28;;
33022;SDS011;19390;51.460;5.710;2023-03-31T04:52:34;11.90;;;2.20;;
33022;SDS011;19390;51.460;5.710;2023-03-31T04:55:00;10.23;;;2.25;;
33022;SDS011;19390;51.460;5.710;2023-03-31T04:57:25;9.68;;;2.03;;
33022;SDS011;19390;51.460;5.710;2023-03-31T04:59:51;11.93;;;2.67;;
33022;SDS011;19390;51.460;5.710;2023-03-31T05:02:17;10.65;;;2.38;;
33022;SDS011;19390;51.460;5.710;2023-03-31T05:04:47;14.18;;;2.35;;
33022;SDS011;19390;51.460;5.710;2023-03-31T05:07:14;8.82;;;2.05;;
33022;SDS011;19390;51.460;5.710;2023-03-31T05:09:41;8.15;;;2.38;;
33022;SDS011;19390;51.460;5.710;2023-03-31T05:12:06;9.90;;;2.15;;
33022;SDS011;19390;51.460;5.710;2023-03-31T05:14:32;11.50;;;1.98;;
33022;SDS011;19390;51.460;5.710;2023-03-31T05:16:58;12.43;;;2.38;;
33022;SDS011;19390;51.460;5.710;2023-03-31T05:19:23;11.13;;;2.40;;
33022;SDS011;19390;51.460;5.710;2023-03-31T05:21:49;12.55;;;2.35;;
33022;SDS011;19390;51.460;5.710;2023-03-31T05:24:15;9.57;;;2.30;;
33022;SDS011;19390;51.460;5.710;2023-03-31T05:26:40;8.23;;;2.28;;
33022;SDS011;19390;51.460;5.710;2023-03-31T05:29:11;9.65;;;1.73;;
33022;SDS011;19390;51.460;5.710;2023-03-31T05:31:37;10.95;;;2.42;;
33022;SDS011;19390;51.460;5.710;2023-03-31T05:34:02;8.68;;;2.33;;
33022;SDS011;19390;51.460;5.710;2023-03-31T05:36:28;12.93;;;2.53;;
33022;SDS011;19390;51.460;5.710;2023-03-31T05:38:54;7.35;;;1.77;;
33022;SDS011;19390;51.460;5.710;2023-03-31T05:41:19;12.40;;;2.70;;
33022;SDS011;19390;51.460;5.710;2023-03-31T05:43:45;8.80;;;2.50;;
33022;SDS011;19390;51.460;5.710;2023-03-31T05:46:10;15.50;;;2.63;;
33022;SDS011;19390;51.460;5.710;2023-03-31T05:48:36;9.80;;;2.33;;
33022;SDS011;19390;51.460;5.710;2023-03-31T05:51:02;6.95;;;1.48;;
33022;SDS011;19390;51.460;5.710;2023-03-31T05:53:28;8.90;;;2.50;;
33022;SDS011;19390;51.460;5.710;2023-03-31T05:55:57;8.55;;;2.30;;
33022;SDS011;19390;51.460;5.710;2023-03-31T05:58:24;9.65;;;2.08;;
33022;SDS011;19390;51.460;5.710;2023-03-31T06:00:58;12.00;;;2.75;;
33022;SDS011;19390;51.460;5.710;2023-03-31T06:03:32;13.82;;;3.00;;
33022;SDS011;19390;51.460;5.710;2023-03-31T06:05:59;10.35;;;2.40;;
33022;SDS011;19390;51.460;5.710;2023-03-31T06:08:26;12.00;;;3.13;;
33022;SDS011;19390;51.460;5.710;2023-03-31T06:10:52;11.38;;;1.80;;
33022;SDS011;19390;51.460;5.710;2023-03-31T06:13:18;9.90;;;2.65;;
33022;SDS011;19390;51.460;5.710;2023-03-31T06:15:54;14.38;;;2.90;;
33022;SDS011;19390;51.460;5.710;2023-03-31T06:18:21;8.88;;;3.03;;
33022;SDS011;19390;51.460;5.710;2023-03-31T06:20:46;11.60;;;2.80;;
33022;SDS011;19390;51.460;5.710;2023-03-31T06:23:12;16.83;;;3.30;;
33022;SDS011;19390;51.460;5.710;2023-03-31T06:25:37;9.45;;;2.90;;
33022;SDS011;19390;51.460;5.710;2023-03-31T06:28:03;13.73;;;2.83;;
33022;SDS011;19390;51.460;5.710;2023-03-31T06:30:31;12.25;;;2.83;;
33022;SDS011;19390;51.460;5.710;2023-03-31T06:32:57;10.43;;;2.95;;
33022;SDS011;19390;51.460;5.710;2023-03-31T06:35:22;10.60;;;3.00;;
33022;SDS011;19390;51.460;5.710;2023-03-31T06:37:48;15.45;;;3.95;;
33022;SDS011;19390;51.460;5.710;2023-03-31T06:40:14;12.82;;;3.40;;
33022;SDS011;19390;51.460;5.710;2023-03-31T06:42:40;11.52;;;3.50;;
33022;SDS011;19390;51.460;5.710;2023-03-31T06:45:05;10.65;;;3.05;;
33022;SDS011;19390;51.460;5.710;2023-03-31T06:47:31;11.45;;;3.00;;
33022;SDS011;19390;51.460;5.710;2023-03-31T06:49:57;12.73;;;2.67;;
33022;SDS011;19390;51.460;5.710;2023-03-31T06:52:22;11.57;;;3.00;;
33022;SDS011;19390;51.460;5.710;2023-03-31T06:54:48;10.85;;;2.20;;
33022;SDS011;19390;51.460;5.710;2023-03-31T06:57:14;10.25;;;2.75;;
33022;SDS011;19390;51.460;5.710;2023-03-31T06:59:39;11.05;;;2.47;;
33022;SDS011;19390;51.460;5.710;2023-03-31T07:02:05;11.98;;;2.47;;
33022;SDS011;19390;51.460;5.710;2023-03-31T07:04:31;10.25;;;2.72;;
33022;SDS011;19390;51.460;5.710;2023-03-31T07:06:59;12.02;;;2.92;;
33022;SDS011;19390;51.460;5.710;2023-03-31T07:09:25;9.88;;;2.72;;
33022;SDS011;19390;51.460;5.710;2023-03-31T07:11:50;13.77;;;3.35;;
33022;SDS011;19390;51.460;5.710;2023-03-31T07:14:16;14.95;;;4.03;;
33022;SDS011;19390;51.460;5.710;2023-03-31T07:16:42;15.65;;;3.40;;
33022;SDS011;19390;51.460;5.710;2023-03-31T07:19:07;15.00;;;3.03;;
33022;SDS011;19390;51.460;5.710;2023-03-31T07:21:34;17.50;;;3.55;;
33022;SDS011;19390;51.460;5.710;2023-03-31T07:24:00;16.05;;;3.40;;
33022;SDS011;19390;51.460;5.710;2023-03-31T07:26:26;18.08;;;3.60;;
33022;SDS011;19390;51.460;5.710;2023-03-31T07:28:52;14.02;;;3.13;;
33022;SDS011;19390;51.460;5.710;2023-03-31T07:31:20;12.07;;;2.53;;
33022;SDS011;19390;51.460;5.710;2023-03-31T07:33:47;13.25;;;2.45;;
33022;SDS011;19390;51.460;5.710;2023-03-31T07:36:12;15.73;;;2.55;;
33022;SDS011;19390;51.460;5.710;2023-03-31T07:38:39;8.88;;;2.47;;
33022;SDS011;19390;51.460;5.710;2023-03-31T07:41:08;11.02;;;2.38;;
33022;SDS011;19390;51.460;5.710;2023-03-31T07:43:35;14.80;;;3.13;;
33022;SDS011;19390;51.460;5.710;2023-03-31T07:46:02;14.25;;;3.00;;
33022;SDS011;19390;51.460;5.710;2023-03-31T07:48:29;16.58;;;2.80;;
33022;SDS011;19390;51.460;5.710;2023-03-31T07:50:54;8.82;;;2.42;;
33022;SDS011;19390;51.460;5.710;2023-03-31T07:53:20;11.55;;;2.88;;
33022;SDS011;19390;51.460;5.710;2023-03-31T07:55:46;16.00;;;2.70;;
33022;SDS011;19390;51.460;5.710;2023-03-31T07:58:12;10.45;;;2.35;;
33022;SDS011;19390;51.460;5.710;2023-03-31T08:00:38;12.75;;;2.90;;
33022;SDS011;19390;51.460;5.710;2023-03-31T08:03:03;11.73;;;3.35;;
33022;SDS011;19390;51.460;5.710;2023-03-31T08:05:29;14.77;;;2.97;;
33022;SDS011;19390;51.460;5.710;2023-03-31T08:07:55;11.88;;;3.10;;
33022;SDS011;19390;51.460;5.710;2023-03-31T08:10:22;17.00;;;3.53;;
33022;SDS011;19390;51.460;5.710;2023-03-31T08:12:49;15.00;;;3.10;;
33022;SDS011;19390;51.460;5.710;2023-03-31T08:15:15;15.45;;;2.67;;
33022;SDS011;19390;51.460;5.710;2023-03-31T08:17:41;15.77;;;2.75;;
33022;SDS011;19390;51.460;5.710;2023-03-31T08:20:07;19.27;;;3.25;;
33022;SDS011;19390;51.460;5.710;2023-03-31T08:22:34;18.85;;;3.13;;
33022;SDS011;19390;51.460;5.710;2023-03-31T08:25:00;21.63;;;3.58;;
33022;SDS011;19390;51.460;5.710;2023-03-31T08:27:27;17.30;;;2.60;;
33022;SDS011;19390;51.460;5.710;2023-03-31T08:29:52;17.63;;;2.58;;
33022;SDS011;19390;51.460;5.710;2023-03-31T08:32:21;13.25;;;2.60;;
33022;SDS011;19390;51.460;5.710;2023-03-31T08:34:48;18.50;;;3.78;;
33022;SDS011;19390;51.460;5.710;2023-03-31T08:37:13;12.77;;;2.55;;
33022;SDS011;19390;51.460;5.710;2023-03-31T08:39:39;12.45;;;2.92;;
33022;SDS011;19390;51.460;5.710;2023-03-31T08:47:01;16.85;;;3.50;;
33022;SDS011;19390;51.460;5.710;2023-03-31T08:49:32;19.92;;;3.75;;
33022;SDS011;19390;51.460;5.710;2023-03-31T08:52:09;15.18;;;2.72;;
33022;SDS011;19390;51.460;5.710;2023-03-31T08:54:46;19.90;;;3.67;;
33022;SDS011;19390;51.460;5.710;2023-03-31T08:57:17;15.90;;;3.45;;
33022;SDS011;19390;51.460;5.710;2023-03-31T08:59:46;17.48;;;2.97;;
33022;SDS011;19390;51.460;5.710;2023-03-31T09:10:34;16.02;;;3.63;;
33022;SDS011;19390;51.460;5.710;2023-03-31T09:13:17;16.88;;;4.25;;
33022;SDS011;19390;51.460;5.710;2023-03-31T09:16:10;22.38;;;4.38;;
33022;SDS011;19390;51.460;5.710;2023-03-31T09:18:39;19.73;;;3.35;;
33022;SDS011;19390;51.460;5.710;2023-03-31T09:23:45;17.52;;;3.53;;
33022;SDS011;19390;51.460;5.710;2023-03-31T09:26:22;15.65;;;3.58;;
33022;SDS011;19390;51.460;5.710;2023-03-31T09:28:53;11.97;;;2.83;;
33022;SDS011;19390;51.460;5.710;2023-03-31T09:31:21;18.15;;;3.45;;
33022;SDS011;19390;51.460;5.710;2023-03-31T09:33:50;16.50;;;3.67;;
33022;SDS011;19390;51.460;5.710;2023-03-31T09:36:18;15.25;;;2.92;;
33022;SDS011;19390;51.460;5.710;2023-03-31T09:38:48;15.75;;;3.15;;
33022;SDS011;19390;51.460;5.710;2023-03-31T09:41:15;20.30;;;3.58;;
33022;SDS011;19390;51.460;5.710;2023-03-31T09:43:41;18.70;;;3.78;;
33022;SDS011;19390;51.460;5.710;2023-03-31T09:46:28;17.17;;;3.58;;
33022;SDS011;19390;51.460;5.710;2023-03-31T09:49:01;17.85;;;3.40;;
33022;SDS011;19390;51.460;5.710;2023-03-31T09:51:35;13.75;;;3.22;;
33022;SDS011;19390;51.460;5.710;2023-03-31T09:54:09;17.63;;;3.35;;
33022;SDS011;19390;51.460;5.710;2023-03-31T09:56:45;17.95;;;3.45;;
33022;SDS011;19390;51.460;5.710;2023-03-31T09:59:14;18.75;;;3.20;;
33022;SDS011;19390;51.460;5.710;2023-03-31T10:01:42;11.10;;;2.60;;
33022;SDS011;19390;51.460;5.710;2023-03-31T10:04:09;13.10;;;2.72;;
33022;SDS011;19390;51.460;5.710;2023-03-31T10:09:08;17.45;;;2.95;;
33022;SDS011;19390;51.460;5.710;2023-03-31T10:11:35;14.68;;;2.80;;
33022;SDS011;19390;51.460;5.710;2023-03-31T10:14:14;13.40;;;2.47;;
33022;SDS011;19390;51.460;5.710;2023-03-31T10:16:47;8.82;;;2.28;;
33022;SDS011;19390;51.460;5.710;2023-03-31T10:19:24;12.27;;;2.40;;
33022;SDS011;19390;51.460;5.710;2023-03-31T10:21:56;19.83;;;2.90;;
33022;SDS011;19390;51.460;5.710;2023-03-31T10:24:41;14.40;;;2.67;;
33022;SDS011;19390;51.460;5.710;2023-03-31T10:27:15;9.65;;;2.10;;
33022;SDS011;19390;51.460;5.710;2023-03-31T10:29:42;11.52;;;1.80;;
33022;SDS011;19390;51.460;5.710;2023-03-31T10:32:09;11.27;;;2.45;;
33022;SDS011;19390;51.460;5.710;2023-03-31T10:34:46;11.60;;;2.22;;
33022;SDS011;19390;51.460;5.710;2023-03-31T10:37:13;12.65;;;1.83;;
33022;SDS011;19390;51.460;5.710;2023-03-31T10:39:46;14.25;;;2.30;;
33022;SDS011;19390;51.460;5.710;2023-03-31T10:42:20;10.02;;;1.77;;
33022;SDS011;19390;51.460;5.710;2023-03-31T10:44:47;9.35;;;2.13;;
33022;SDS011;19390;51.460;5.710;2023-03-31T10:49:47;14.95;;;2.65;;
33022;SDS011;19390;51.460;5.710;2023-03-31T10:52:22;10.75;;;1.98;;
33022;SDS011;19390;51.460;5.710;2023-03-31T10:54:54;9.25;;;2.00;;
33022;SDS011;19390;51.460;5.710;2023-03-31T10:57:33;10.30;;;2.17;;
33022;SDS011;19390;51.460;5.710;2023-03-31T11:00:10;9.30;;;1.80;;
33022;SDS011;19390;51.460;5.710;2023-03-31T11:05:31;10.20;;;2.13;;
33022;SDS011;19390;51.460;5.710;2023-03-31T11:08:20;11.10;;;2.30;;
33022;SDS011;19390;51.460;5.710;2023-03-31T11:13:42;15.43;;;2.97;;
33022;SDS011;19390;51.460;5.710;2023-03-31T11:21:53;11.55;;;2.70;;
33022;SDS011;19390;51.460;5.710;2023-03-31T11:27:21;10.45;;;2.40;;
33022;SDS011;19390;51.460;5.710;2023-03-31T11:29:59;14.23;;;2.42;;
33022;SDS011;19390;51.460;5.710;2023-03-31T11:40:26;14.25;;;3.28;;
33022;SDS011;19390;51.460;5.710;2023-03-31T11:45:45;15.73;;;3.00;;
33022;SDS011;19390;51.460;5.710;2023-03-31T11:49:17;18.95;;;3.58;;
33022;SDS011;19390;51.460;5.710;2023-03-31T11:53:52;14.57;;;2.78;;
33022;SDS011;19390;51.460;5.710;2023-03-31T11:56:21;13.45;;;3.03;;
33022;SDS011;19390;51.460;5.710;2023-03-31T11:58:50;14.00;;;2.60;;
33022;SDS011;19390;51.460;5.710;2023-03-31T12:01:36;16.42;;;2.83;;
33022;SDS011;19390;51.460;5.710;2023-03-31T12:09:59;11.27;;;2.60;;
33022;SDS011;19390;51.460;5.710;2023-03-31T12:12:42;12.60;;;2.38;;
33022;SDS011;19390;51.460;5.710;2023-03-31T12:15:17;12.48;;;2.65;;
33022;SDS011;19390;51.460;5.710;2023-03-31T12:17:49;13.70;;;2.85;;
33022;SDS011;19390;51.460;5.710;2023-03-31T12:22:51;11.43;;;2.15;;
33022;SDS011;19390;51.460;5.710;2023-03-31T12:25:19;15.20;;;2.80;;
33022;SDS011;19390;51.460;5.710;2023-03-31T12:27:51;13.65;;;2.55;;
33022;SDS011;19390;51.460;5.710;2023-03-31T12:30:27;10.18;;;2.65;;
33022;SDS011;19390;51.460;5.710;2023-03-31T12:32:58;15.30;;;2.83;;
33022;SDS011;19390;51.460;5.710;2023-03-31T12:48:55;14.25;;;2.50;;
33022;SDS011;19390;51.460;5.710;2023-03-31T12:51:35;16.95;;;2.90;;
33022;SDS011;19390;51.460;5.710;2023-03-31T12:57:22;12.07;;;2.60;;
33022;SDS011;19390;51.460;5.710;2023-03-31T13:00:32;8.25;;;2.08;;
33022;SDS011;19390;51.460;5.710;2023-03-31T13:02:46;9.93;;;2.00;;
33022;SDS011;19390;51.460;5.710;2023-03-31T13:08:48;8.05;;;2.10;;
33022;SDS011;19390;51.460;5.710;2023-03-31T13:14:01;9.90;;;2.13;;
33022;SDS011;19390;51.460;5.710;2023-03-31T13:16:36;6.78;;;1.80;;
33022;SDS011;19390;51.460;5.710;2023-03-31T13:19:02;9.18;;;1.90;;
33022;SDS011;19390;51.460;5.710;2023-03-31T13:21:28;6.88;;;1.85;;
33022;SDS011;19390;51.460;5.710;2023-03-31T13:23:58;10.48;;;2.70;;
33022;SDS011;19390;51.460;5.710;2023-03-31T13:29:16;12.13;;;2.25;;
33022;SDS011;19390;51.460;5.710;2023-03-31T13:32:04;8.68;;;1.80;;
33022;SDS011;19390;51.460;5.710;2023-03-31T13:34:42;15.80;;;3.22;;
33022;SDS011;19390;51.460;5.710;2023-03-31T13:37:32;14.50;;;2.30;;
33022;SDS011;19390;51.460;5.710;2023-03-31T13:40:31;20.90;;;3.08;;
33022;SDS011;19390;51.460;5.710;2023-03-31T13:44:05;17.55;;;2.58;;
33022;SDS011;19390;51.460;5.710;2023-03-31T13:46:41;11.13;;;2.70;;
33022;SDS011;19390;51.460;5.710;2023-03-31T13:52:08;9.95;;;2.53;;
33022;SDS011;19390;51.460;5.710;2023-03-31T14:11:32;9.30;;;1.70;;
33022;SDS011;19390;51.460;5.710;2023-03-31T14:16:27;13.18;;;1.85;;
33022;SDS011;19390;51.460;5.710;2023-03-31T14:19:00;10.20;;;2.25;;
33022;SDS011;19390;51.460;5.710;2023-03-31T14:21:45;7.50;;;1.63;;
33022;SDS011;19390;51.460;5.710;2023-03-31T14:24:29;6.65;;;1.60;;
33022;SDS011;19390;51.460;5.710;2023-03-31T14:38:13;8.88;;;1.35;;
33022;SDS011;19390;51.460;5.710;2023-03-31T14:40:51;6.45;;;0.93;;
33022;SDS011;19390;51.460;5.710;2023-03-31T14:43:20;6.70;;;1.50;;
33022;SDS011;19390;51.460;5.710;2023-03-31T14:46:02;6.53;;;1.50;;
33022;SDS011;19390;51.460;5.710;2023-03-31T14:48:32;3.13;;;1.00;;
33022;SDS011;19390;51.460;5.710;2023-03-31T14:51:02;6.20;;;1.83;;
33022;SDS011;19390;51.460;5.710;2023-03-31T14:53:34;7.80;;;1.63;;
33022;SDS011;19390;51.460;5.710;2023-03-31T14:56:07;10.60;;;4.18;;
33022;SDS011;19390;51.460;5.710;2023-03-31T14:58:38;6.95;;;1.23;;
33022;SDS011;19390;51.460;5.710;2023-03-31T15:01:06;8.48;;;4.68;;
33022;SDS011;19390;51.460;5.710;2023-03-31T15:03:34;6.20;;;1.05;;
33022;SDS011;19390;51.460;5.710;2023-03-31T15:06:05;6.55;;;1.58;;
33022;SDS011;19390;51.460;5.710;2023-03-31T15:08:32;7.15;;;0.93;;
33022;SDS011;19390;51.460;5.710;2023-03-31T15:11:01;3.58;;;0.70;;
33022;SDS011;19390;51.460;5.710;2023-03-31T15:13:32;5.00;;;0.80;;
33022;SDS011;19390;51.460;5.710;2023-03-31T15:16:48;3.75;;;0.60;;
33022;SDS011;19390;51.460;5.710;2023-03-31T15:19:04;4.45;;;0.60;;
33022;SDS011;19390;51.460;5.710;2023-03-31T15:21:40;3.92;;;0.75;;
33022;SDS011;19390;51.460;5.710;2023-03-31T15:24:06;6.25;;;2.40;;
33022;SDS011;19390;51.460;5.710;2023-03-31T15:26:33;7.57;;;3.08;;
33022;SDS011;19390;51.460;5.710;2023-03-31T15:29:11;3.08;;;0.40;;
33022;SDS011;19390;51.460;5.710;2023-03-31T15:31:41;2.80;;;0.63;;
33022;SDS011;19390;51.460;5.710;2023-03-31T15:34:41;3.20;;;0.90;;
33022;SDS011;19390;51.460;5.710;2023-03-31T15:37:05;8.75;;;2.08;;
33022;SDS011;19390;51.460;5.710;2023-03-31T15:39:31;2.90;;;0.60;;
33022;SDS011;19390;51.460;5.710;2023-03-31T15:42:00;3.60;;;0.65;;
33022;SDS011;19390;51.460;5.710;2023-03-31T15:44:34;1.95;;;0.70;;
33022;SDS011;19390;51.460;5.710;2023-03-31T15:47:45;2.75;;;0.90;;
33022;SDS011;19390;51.460;5.710;2023-03-31T15:52:34;3.53;;;0.93;;
33022;SDS011;19390;51.460;5.710;2023-03-31T15:55:22;3.30;;;1.25;;
33022;SDS011;19390;51.460;5.710;2023-03-31T15:57:56;7.70;;;1.00;;
33022;SDS011;19390;51.460;5.710;2023-03-31T16:02:56;7.70;;;1.10;;
33022;SDS011;19390;51.460;5.710;2023-03-31T16:05:29;3.35;;;1.30;;
33022;SDS011;19390;51.460;5.710;2023-03-31T16:08:18;4.35;;;1.08;;
33022;SDS011;19390;51.460;5.710;2023-03-31T16:10:53;2.13;;;0.73;;
33022;SDS011;19390;51.460;5.710;2023-03-31T16:13:23;3.75;;;1.23;;
33022;SDS011;19390;51.460;5.710;2023-03-31T16:15:50;4.75;;;0.98;;
33022;SDS011;19390;51.460;5.710;2023-03-31T16:18:35;3.30;;;0.70;;
33022;SDS011;19390;51.460;5.710;2023-03-31T16:21:06;6.95;;;1.05;;
33022;SDS011;19390;51.460;5.710;2023-03-31T16:23:33;3.20;;;0.90;;
33022;SDS011;19390;51.460;5.710;2023-03-31T16:26:05;3.42;;;0.73;;
33022;SDS011;19390;51.460;5.710;2023-03-31T16:28:33;4.15;;;0.70;;
33022;SDS011;19390;51.460;5.710;2023-03-31T16:31:01;4.28;;;0.80;;
33022;SDS011;19390;51.460;5.710;2023-03-31T16:33:29;4.95;;;0.73;;
33022;SDS011;19390;51.460;5.710;2023-03-31T16:35:55;1.65;;;0.45;;
33022;SDS011;19390;51.460;5.710;2023-03-31T16:38:23;3.58;;;0.77;;
33022;SDS011;19390;51.460;5.710;2023-03-31T16:40:51;2.33;;;0.65;;
33022;SDS011;19390;51.460;5.710;2023-03-31T16:43:22;0.80;;;0.50;;
33022;SDS011;19390;51.460;5.710;2023-03-31T16:45:58;1.92;;;0.50;;
33022;SDS011;19390;51.460;5.710;2023-03-31T16:48:27;2.80;;;0.63;;
33022;SDS011;19390;51.460;5.710;2023-03-31T16:50:54;0.95;;;0.40;;
33022;SDS011;19390;51.460;5.710;2023-03-31T16:53:23;2.60;;;0.73;;
33022;SDS011;19390;51.460;5.710;2023-03-31T16:55:52;3.42;;;1.10;;
33022;SDS011;19390;51.460;5.710;2023-03-31T16:58:18;3.55;;;0.82;;
33022;SDS011;19390;51.460;5.710;2023-03-31T17:00:44;2.35;;;0.65;;
33022;SDS011;19390;51.460;5.710;2023-03-31T17:03:10;4.38;;;0.73;;
33022;SDS011;19390;51.460;5.710;2023-03-31T17:05:38;2.15;;;0.50;;
33022;SDS011;19390;51.460;5.710;2023-03-31T17:08:06;4.88;;;0.88;;
33022;SDS011;19390;51.460;5.710;2023-03-31T17:10:32;3.78;;;0.80;;
33022;SDS011;19390;51.460;5.710;2023-03-31T17:12:58;3.88;;;0.63;;
33022;SDS011;19390;51.460;5.710;2023-03-31T17:15:24;3.25;;;0.90;;
33022;SDS011;19390;51.460;5.710;2023-03-31T17:17:50;2.70;;;0.60;;
33022;SDS011;19390;51.460;5.710;2023-03-31T17:20:16;2.60;;;0.60;;
33022;SDS011;19390;51.460;5.710;2023-03-31T17:22:42;2.17;;;0.52;;
33022;SDS011;19390;51.460;5.710;2023-03-31T17:25:08;4.72;;;0.75;;
33022;SDS011;19390;51.460;5.710;2023-03-31T17:27:33;7.47;;;0.68;;
33022;SDS011;19390;51.460;5.710;2023-03-31T17:29:59;3.17;;;1.08;;
33022;SDS011;19390;51.460;5.710;2023-03-31T17:32:25;2.03;;;0.70;;
33022;SDS011;19390;51.460;5.710;2023-03-31T17:34:51;4.72;;;0.77;;
33022;SDS011;19390;51.460;5.710;2023-03-31T17:37:17;3.28;;;1.08;;
33022;SDS011;19390;51.460;5.710;2023-03-31T17:39:43;4.05;;;1.00;;
33022;SDS011;19390;51.460;5.710;2023-03-31T17:42:11;5.03;;;0.77;;
33022;SDS011;19390;51.460;5.710;2023-03-31T17:44:37;2.67;;;1.15;;